Audubon Park, New Jersey
Current Conditions -  °F | °C
As of 3:04 AM on Monday 26 Jan 2015 (Local Time) from KPHL Reporting Station
Overcast Overcast  
Wind Chill: 21°   Ceiling: 4800
Heat Index: 30°   Visibility: 10mi
Dew Point: 23°   Wind: 10mph
Humidity: 75%   Direction: 60°ENE
Pressure: 29.96"   Gusts: NA
Location:  39.891°N, 75.0738°W
Report Text: KPHL 260804Z 06009KT 10SM FEW013 OVC048 M01/M05 A2996 RMK AO2 SNE04 P0000 T10111050
Loading
Personal Weather Stations






























Interactive Weather Map New forecast layout! Learn more

10-Day Weather Forecast

Advertisements
Track Severe Weather on mobile